Belvidere, North Carolina
Current Conditions -  °F | °C
As of 3:15 PM on Sunday 25 Jan 2015 (Local Time) from KEDE Reporting Station
Clear Clear  
Wind Chill: 52°   Ceiling: Unl
Heat Index: 52°   Visibility: 10mi
Dew Point: 32°   Wind: 5mph
Humidity: 47%   Direction: 170°S
Pressure: 29.89"   Gusts: NA
Location:  36.27°N, 76.54°W
Report Text: KEDE 252015Z AUTO 17004KT 10SM CLR 11/00 A2989 RMK AO2 T01100000
Loading
Personal Weather Stations






























Interactive Weather Map New forecast layout! Learn more

10-Day Weather Forecast

Advertisements
Track Severe Weather on mobile